createdAt,value
2023-04-30T20:25:29.551Z,101178.94
2023-04-30T20:27:57.285Z,101184.59
2023-04-30T20:30:24.002Z,101190.88
2023-04-30T20:32:50.677Z,101186.69
2023-04-30T20:35:17.389Z,101194.13
2023-04-30T20:37:44.353Z,101199.56
2023-04-30T20:40:11.534Z,101186.97
2023-04-30T20:42:40.583Z,101196.81
2023-04-30T20:45:07.748Z,101196.22
2023-04-30T20:47:34.278Z,101189.06
2023-04-30T20:50:00.971Z,101185.38
2023-04-30T20:52:27.657Z,101183.72
2023-04-30T20:54:54.766Z,101184.78
2023-04-30T20:57:21.263Z,101188.38
2023-04-30T20:59:47.753Z,101182.38
2023-04-30T21:02:14.350Z,101182.78
2023-04-30T21:04:40.996Z,101174.94
2023-04-30T21:07:07.542Z,101177.78
2023-04-30T21:09:35.604Z,101172.28
2023-04-30T21:12:04.919Z,101177.03
2023-04-30T21:14:32.124Z,101174.19
2023-04-30T21:16:59.481Z,101179.69
2023-04-30T21:19:26.608Z,101182.31
2023-04-30T21:21:53.371Z,101175.72
2023-04-30T21:24:20.927Z,101185.31
2023-04-30T21:26:47.616Z,101183.19
2023-04-30T21:29:14.902Z,101183.75
2023-04-30T21:31:41.472Z,101182.03
2023-04-30T21:34:08.222Z,101186.47
2023-04-30T21:36:35.399Z,101179.28
2023-04-30T21:39:02.062Z,101179.44
2023-04-30T21:41:28.610Z,101178.00
2023-04-30T21:43:55.587Z,101164.66
2023-04-30T21:46:22.580Z,101166.34
2023-04-30T21:48:49.613Z,101164.84
2023-04-30T21:51:17.033Z,101160.63
2023-04-30T21:53:45.302Z,101153.19
2023-04-30T21:56:12.768Z,101149.06
2023-04-30T21:58:39.462Z,101159.56
2023-04-30T22:01:06.359Z,101152.56
2023-04-30T22:03:33.346Z,101154.03
2023-04-30T22:06:00.705Z,101148.78
2023-04-30T22:08:28.241Z,101148.25
2023-04-30T22:10:56.811Z,101152.88
2023-04-30T22:13:23.382Z,101144.69
2023-04-30T22:15:50.562Z,101151.19
2023-04-30T22:18:17.194Z,101144.91
2023-04-30T22:20:44.598Z,101151.75
2023-04-30T22:23:11.650Z,101148.63
2023-04-30T22:25:38.173Z,101146.91
2023-04-30T22:28:04.920Z,101146.91
2023-04-30T22:30:31.444Z,101150.06
2023-04-30T22:32:58.003Z,101153.00
2023-04-30T22:35:27.444Z,101143.16
2023-04-30T22:37:54.012Z,101142.34
2023-04-30T22:40:21.030Z,101145.56
2023-04-30T22:42:48.161Z,101143.06
2023-04-30T22:45:14.906Z,101134.66
2023-04-30T22:47:42.107Z,101139.91
2023-04-30T22:50:09.830Z,101134.53
2023-04-30T22:52:36.714Z,101138.94
2023-04-30T22:55:05.473Z,101130.75
2023-04-30T22:57:32.174Z,101135.78
2023-04-30T22:59:59.205Z,101122.44
2023-04-30T23:02:26.287Z,101125.91
2023-04-30T23:04:52.862Z,101129.72
2023-04-30T23:07:19.429Z,101119.34
2023-04-30T23:09:45.965Z,101125.53
2023-04-30T23:12:12.765Z,101124.00
2023-04-30T23:14:39.264Z,101120.78
2023-04-30T23:17:06.211Z,101126.38
2023-04-30T23:19:33.395Z,101122.75
2023-04-30T23:21:59.892Z,101113.31
2023-04-30T23:24:27.069Z,101113.06
2023-04-30T23:26:55.129Z,101115.66
2023-04-30T23:29:21.877Z,101116.84
2023-04-30T23:31:48.544Z,101112.88
2023-04-30T23:34:15.507Z,101116.09
2023-04-30T23:36:42.011Z,101109.50
2023-04-30T23:39:10.094Z,101106.38
2023-04-30T23:41:36.650Z,101109.94
2023-04-30T23:44:03.776Z,101103.03
2023-04-30T23:46:30.903Z,101092.34
2023-04-30T23:48:57.426Z,101101.16
2023-04-30T23:51:24.376Z,101099.47
2023-04-30T23:53:50.981Z,101096.00
2023-04-30T23:56:17.507Z,101091.19
2023-04-30T23:58:44.160Z,101080.06
